sensor_id;sensor_type;location;lat;lon;timestamp;pressure;altitude;pressure_sealevel;temperature;humidity
77159;BME280;66129;45.890;13.714;2023-02-08T00:01:08;103158.53;;;0.17;51.08
77159;BME280;66129;45.890;13.714;2023-02-08T00:03:34;103133.47;;;0.10;50.63
77159;BME280;66129;45.890;13.714;2023-02-08T00:05:59;103158.53;;;0.17;51.05
77159;BME280;66129;45.890;13.714;2023-02-08T00:08:25;103139.84;;;0.15;51.17
77159;BME280;66129;45.890;13.714;2023-02-08T00:10:50;103122.03;;;-0.03;51.12
77159;BME280;66129;45.890;13.714;2023-02-08T00:13:16;103106.03;;;-0.04;51.53
77159;BME280;66129;45.890;13.714;2023-02-08T00:15:42;103036.00;;;-0.49;51.62
77159;BME280;66129;45.890;13.714;2023-02-08T00:18:09;103099.16;;;-0.13;51.67
77159;BME280;66129;45.890;13.714;2023-02-08T00:20:37;103080.19;;;-0.27;51.58
77159;BME280;66129;45.890;13.714;2023-02-08T00:23:02;103054.97;;;-0.44;51.63
77159;BME280;66129;45.890;13.714;2023-02-08T00:25:28;103089.94;;;-0.30;51.79
77159;BME280;66129;45.890;13.714;2023-02-08T00:27:53;103124.56;;;-0.03;51.80
77159;BME280;66129;45.890;13.714;2023-02-08T00:30:19;103133.31;;;0.00;51.83
77159;BME280;66129;45.890;13.714;2023-02-08T00:32:44;103055.44;;;-0.31;51.17
77159;BME280;66129;45.890;13.714;2023-02-08T00:35:10;103057.63;;;-0.42;51.85
77159;BME280;66129;45.890;13.714;2023-02-08T00:37:35;103124.09;;;-0.08;51.85
77159;BME280;66129;45.890;13.714;2023-02-08T00:40:01;103145.16;;;0.01;52.18
77159;BME280;66129;45.890;13.714;2023-02-08T00:42:27;103107.78;;;-0.20;52.17
77159;BME280;66129;45.890;13.714;2023-02-08T00:44:53;103102.69;;;-0.37;52.24
77159;BME280;66129;45.890;13.714;2023-02-08T00:47:18;103166.94;;;-0.08;52.47
77159;BME280;66129;45.890;13.714;2023-02-08T00:49:44;103071.25;;;-0.49;52.71
77159;BME280;66129;45.890;13.714;2023-02-08T00:52:09;103117.97;;;-0.27;52.59
77159;BME280;66129;45.890;13.714;2023-02-08T00:54:36;103089.94;;;-0.30;52.22
77159;BME280;66129;45.890;13.714;2023-02-08T00:57:01;103081.06;;;-0.35;52.59
77159;BME280;66129;45.890;13.714;2023-02-08T00:59:27;103145.63;;;-0.03;52.57
77159;BME280;66129;45.890;13.714;2023-02-08T01:01:52;103138.06;;;-0.03;52.90
77159;BME280;66129;45.890;13.714;2023-02-08T01:04:18;103130.91;;;-0.15;52.02
77159;BME280;66129;45.890;13.714;2023-02-08T01:06:43;103082.97;;;-0.41;51.98
77159;BME280;66129;45.890;13.714;2023-02-08T01:09:09;103172.75;;;0.08;51.96
77159;BME280;66129;45.890;13.714;2023-02-08T01:11:34;103075.13;;;-0.44;51.49
77159;BME280;66129;45.890;13.714;2023-02-08T01:14:01;103121.22;;;-0.28;52.47
77159;BME280;66129;45.890;13.714;2023-02-08T01:16:29;103109.84;;;-0.33;52.31
77159;BME280;66129;45.890;13.714;2023-02-08T01:18:56;103098.09;;;-0.32;51.86
77159;BME280;66129;45.890;13.714;2023-02-08T01:21:25;103120.38;;;-0.20;51.96
77159;BME280;66129;45.890;13.714;2023-02-08T01:23:52;103091.47;;;-0.23;51.72
77159;BME280;66129;45.890;13.714;2023-02-08T01:26:18;103162.97;;;0.11;51.29
77159;BME280;66129;45.890;13.714;2023-02-08T01:28:45;103111.03;;;-0.21;51.54
77159;BME280;66129;45.890;13.714;2023-02-08T01:31:13;103129.16;;;-0.08;51.28
77159;BME280;66129;45.890;13.714;2023-02-08T01:33:39;103130.75;;;-0.17;51.65
77159;BME280;66129;45.890;13.714;2023-02-08T01:36:05;103126.03;;;-0.05;51.90
77159;BME280;66129;45.890;13.714;2023-02-08T01:38:32;103115.94;;;-0.22;51.90
77159;BME280;66129;45.890;13.714;2023-02-08T01:40:59;103132.97;;;-0.11;51.83
77159;BME280;66129;45.890;13.714;2023-02-08T01:43:29;103047.66;;;-0.58;51.51
77159;BME280;66129;45.890;13.714;2023-02-08T01:45:56;103150.50;;;0.04;51.32
77159;BME280;66129;45.890;13.714;2023-02-08T01:48:31;103144.28;;;0.00;51.70
77159;BME280;66129;45.890;13.714;2023-02-08T01:51:08;103130.50;;;-0.03;51.05
77159;BME280;66129;45.890;13.714;2023-02-08T01:53:35;103094.72;;;-0.24;51.04
77159;BME280;66129;45.890;13.714;2023-02-08T01:56:04;103116.69;;;-0.15;51.36
77159;BME280;66129;45.890;13.714;2023-02-08T01:58:33;103129.88;;;-0.17;51.90
77159;BME280;66129;45.890;13.714;2023-02-08T02:01:00;103117.84;;;-0.20;51.41
77159;BME280;66129;45.890;13.714;2023-02-08T02:03:27;103055.50;;;-0.63;51.38
77159;BME280;66129;45.890;13.714;2023-02-08T02:06:05;103135.50;;;-0.11;51.83
77159;BME280;66129;45.890;13.714;2023-02-08T02:08:32;103138.75;;;-0.12;51.80
77159;BME280;66129;45.890;13.714;2023-02-08T02:10:58;103126.63;;;-0.16;51.65
77159;BME280;66129;45.890;13.714;2023-02-08T02:13:25;103071.25;;;-0.49;52.22
77159;BME280;66129;45.890;13.714;2023-02-08T02:15:52;103069.78;;;-0.47;51.80
77159;BME280;66129;45.890;13.714;2023-02-08T02:18:24;103110.59;;;-0.17;51.23
77159;BME280;66129;45.890;13.714;2023-02-08T02:24:07;103125.47;;;-0.03;50.68
77159;BME280;66129;45.890;13.714;2023-02-08T02:27:18;103103.66;;;-0.11;51.02
77159;BME280;66129;45.890;13.714;2023-02-08T02:35:07;103101.44;;;0.00;50.80
77159;BME280;66129;45.890;13.714;2023-02-08T02:37:46;103113.28;;;0.10;50.82
77159;BME280;66129;45.890;13.714;2023-02-08T02:40:32;103102.91;;;0.07;50.62
77159;BME280;66129;45.890;13.714;2023-02-08T02:43:21;103099.78;;;0.01;50.74
77159;BME280;66129;45.890;13.714;2023-02-08T02:46:08;103103.81;;;-0.01;50.87
77159;BME280;66129;45.890;13.714;2023-02-08T02:51:31;103105.44;;;-0.10;50.54
77159;BME280;66129;45.890;13.714;2023-02-08T02:54:19;103087.16;;;-0.24;50.90
77159;BME280;66129;45.890;13.714;2023-02-08T02:56:50;103105.25;;;-0.11;51.05
77159;BME280;66129;45.890;13.714;2023-02-08T02:59:17;103109.41;;;-0.12;51.27
77159;BME280;66129;45.890;13.714;2023-02-08T03:01:45;103069.63;;;-0.48;51.56
77159;BME280;66129;45.890;13.714;2023-02-08T03:12:38;102998.00;;;-0.76;51.04
77159;BME280;66129;45.890;13.714;2023-02-08T03:17:53;103117.53;;;-0.23;51.51
77159;BME280;66129;45.890;13.714;2023-02-08T03:20:37;103107.44;;;-0.40;52.04
77159;BME280;66129;45.890;13.714;2023-02-08T03:23:22;103121.06;;;-0.38;52.26
77159;BME280;66129;45.890;13.714;2023-02-08T03:33:51;103084.66;;;-0.74;52.93
77159;BME280;66129;45.890;13.714;2023-02-08T03:39:26;103085.41;;;-0.66;52.68
77159;BME280;66129;45.890;13.714;2023-02-08T03:41:56;103090.72;;;-0.72;53.07
77159;BME280;66129;45.890;13.714;2023-02-08T03:44:32;103108.81;;;-0.67;52.91
77159;BME280;66129;45.890;13.714;2023-02-08T03:47:06;103066.84;;;-0.84;52.42
77159;BME280;66129;45.890;13.714;2023-02-08T03:49:35;103124.75;;;-0.51;53.11
77159;BME280;66129;45.890;13.714;2023-02-08T03:52:04;103086.75;;;-0.70;52.88
77159;BME280;66129;45.890;13.714;2023-02-08T03:54:37;103106.78;;;-0.54;53.07
77159;BME280;66129;45.890;13.714;2023-02-08T03:57:09;103107.03;;;-0.68;53.24
77159;BME280;66129;45.890;13.714;2023-02-08T03:59:40;103040.22;;;-1.14;53.43
77159;BME280;66129;45.890;13.714;2023-02-08T04:02:09;103093.88;;;-0.90;53.55
77159;BME280;66129;45.890;13.714;2023-02-08T04:04:39;103109.63;;;-0.84;53.89
77159;BME280;66129;45.890;13.714;2023-02-08T04:07:06;103102.59;;;-0.71;53.43
77159;BME280;66129;45.890;13.714;2023-02-08T04:09:32;103105.41;;;-0.68;53.38
77159;BME280;66129;45.890;13.714;2023-02-08T04:11:58;103100.41;;;-0.51;52.52
77159;BME280;66129;45.890;13.714;2023-02-08T04:14:23;103104.41;;;-0.53;52.85
77159;BME280;66129;45.890;13.714;2023-02-08T04:16:49;103060.31;;;-0.82;53.25
77159;BME280;66129;45.890;13.714;2023-02-08T04:19:14;103047.75;;;-0.82;53.15
77159;BME280;66129;45.890;13.714;2023-02-08T04:21:40;103102.63;;;-0.62;53.71
77159;BME280;66129;45.890;13.714;2023-02-08T04:24:05;103086.75;;;-0.70;53.64
77159;BME280;66129;45.890;13.714;2023-02-08T04:26:31;103073.31;;;-0.62;53.45
77159;BME280;66129;45.890;13.714;2023-02-08T04:28:56;103105.47;;;-0.51;54.17
77159;BME280;66129;45.890;13.714;2023-02-08T04:31:22;103111.84;;;-0.46;53.72
77159;BME280;66129;45.890;13.714;2023-02-08T04:33:48;103086.47;;;-0.56;53.81
77159;BME280;66129;45.890;13.714;2023-02-08T04:36:13;103097.91;;;-0.51;53.61
77159;BME280;66129;45.890;13.714;2023-02-08T04:38:39;103101.06;;;-0.36;53.27
77159;BME280;66129;45.890;13.714;2023-02-08T04:41:04;103082.50;;;-0.54;53.38
77159;BME280;66129;45.890;13.714;2023-02-08T04:43:30;103109.34;;;-0.37;53.53
77159;BME280;66129;45.890;13.714;2023-02-08T04:45:55;103094.34;;;-0.53;53.44
77159;BME280;66129;45.890;13.714;2023-02-08T04:48:21;103113.09;;;-0.34;53.41
77159;BME280;66129;45.890;13.714;2023-02-08T04:50:46;103104.19;;;-0.39;53.32
77159;BME280;66129;45.890;13.714;2023-02-08T04:53:13;103025.50;;;-0.86;53.12
77159;BME280;66129;45.890;13.714;2023-02-08T04:55:38;103087.53;;;-0.54;53.44
77159;BME280;66129;45.890;13.714;2023-02-08T04:58:04;103071.06;;;-0.59;53.29
77159;BME280;66129;45.890;13.714;2023-02-08T05:00:29;103068.28;;;-0.62;53.44
77159;BME280;66129;45.890;13.714;2023-02-08T05:02:56;103095.06;;;-0.54;53.50
77159;BME280;66129;45.890;13.714;2023-02-08T05:05:25;103109.75;;;-0.50;53.37
77159;BME280;66129;45.890;13.714;2023-02-08T05:07:52;103087.22;;;-0.57;53.65
77159;BME280;66129;45.890;13.714;2023-02-08T05:10:17;103080.41;;;-0.58;53.00
77159;BME280;66129;45.890;13.714;2023-02-08T05:12:43;103080.69;;;-0.63;53.30
77159;BME280;66129;45.890;13.714;2023-02-08T05:15:09;103107.88;;;-0.44;53.22
77159;BME280;66129;45.890;13.714;2023-02-08T05:17:35;103104.44;;;-0.44;53.01
77159;BME280;66129;45.890;13.714;2023-02-08T05:20:01;103102.69;;;-0.45;53.24
77159;BME280;66129;45.890;13.714;2023-02-08T05:22:27;103091.28;;;-0.42;52.99
77159;BME280;66129;45.890;13.714;2023-02-08T05:24:52;103037.69;;;-0.73;52.99
77159;BME280;66129;45.890;13.714;2023-02-08T05:27:18;103078.03;;;-0.56;53.32
77159;BME280;66129;45.890;13.714;2023-02-08T05:29:43;103063.91;;;-0.71;53.34
77159;BME280;66129;45.890;13.714;2023-02-08T05:32:09;103114.97;;;-0.48;53.56
77159;BME280;66129;45.890;13.714;2023-02-08T05:34:36;103063.50;;;-0.67;53.86
77159;BME280;66129;45.890;13.714;2023-02-08T05:37:01;103039.75;;;-0.78;53.69
77159;BME280;66129;45.890;13.714;2023-02-08T05:39:27;103019.00;;;-0.92;53.79
77159;BME280;66129;45.890;13.714;2023-02-08T05:41:52;103046.56;;;-0.77;54.21
77159;BME280;66129;45.890;13.714;2023-02-08T05:44:18;103035.13;;;-0.90;54.01
77159;BME280;66129;45.890;13.714;2023-02-08T05:46:43;103072.09;;;-0.57;53.96
77159;BME280;66129;45.890;13.714;2023-02-08T05:49:09;103080.13;;;-0.61;53.87
77159;BME280;66129;45.890;13.714;2023-02-08T05:51:34;103099.25;;;-0.46;53.75
77159;BME280;66129;45.890;13.714;2023-02-08T05:54:00;103096.13;;;-0.52;53.88
77159;BME280;66129;45.890;13.714;2023-02-08T05:56:25;103087.38;;;-0.64;54.37
77159;BME280;66129;45.890;13.714;2023-02-08T05:58:52;103122.25;;;-0.43;54.16
77159;BME280;66129;45.890;13.714;2023-02-08T06:01:17;103093.72;;;-0.59;53.67
77159;BME280;66129;45.890;13.714;2023-02-08T06:03:43;103130.50;;;-0.52;53.51
77159;BME280;66129;45.890;13.714;2023-02-08T06:06:08;103124.56;;;-0.53;53.91
77159;BME280;66129;45.890;13.714;2023-02-08T06:08:38;103123.09;;;-0.51;54.09
77159;BME280;66129;45.890;13.714;2023-02-08T06:11:04;103093.44;;;-0.62;54.26
77159;BME280;66129;45.890;13.714;2023-02-08T06:13:30;103101.88;;;-0.61;54.14
77159;BME280;66129;45.890;13.714;2023-02-08T06:15:56;103111.66;;;-0.56;54.35
77159;BME280;66129;45.890;13.714;2023-02-08T06:18:22;103128.75;;;-0.45;54.55
77159;BME280;66129;45.890;13.714;2023-02-08T06:20:51;103124.25;;;-0.56;54.61
77159;BME280;66129;45.890;13.714;2023-02-08T06:23:16;103131.88;;;-0.47;54.74
77159;BME280;66129;45.890;13.714;2023-02-08T06:25:42;103110.91;;;-0.63;54.93
77159;BME280;66129;45.890;13.714;2023-02-08T06:28:07;103135.56;;;-0.44;54.98
77159;BME280;66129;45.890;13.714;2023-02-08T06:30:36;103114.50;;;-0.44;54.67
77159;BME280;66129;45.890;13.714;2023-02-08T06:33:02;103139.44;;;-0.39;54.59
77159;BME280;66129;45.890;13.714;2023-02-08T06:35:27;103126.13;;;-0.38;54.63
77159;BME280;66129;45.890;13.714;2023-02-08T06:37:53;103100.84;;;-0.55;54.70
77159;BME280;66129;45.890;13.714;2023-02-08T06:40:19;103129.38;;;-0.39;54.76
77159;BME280;66129;45.890;13.714;2023-02-08T06:42:46;103117.81;;;-0.37;54.23
77159;BME280;66129;45.890;13.714;2023-02-08T06:45:12;103127.75;;;-0.30;54.28
77159;BME280;66129;45.890;13.714;2023-02-08T06:47:37;103093.03;;;-0.49;54.29
77159;BME280;66129;45.890;13.714;2023-02-08T06:50:03;103049.31;;;-0.58;53.48
77159;BME280;66129;45.890;13.714;2023-02-08T06:52:29;103136.66;;;-0.25;53.40
77159;BME280;66129;45.890;13.714;2023-02-08T06:54:54;103123.31;;;-0.24;53.34
77159;BME280;66129;45.890;13.714;2023-02-08T06:57:20;103092.94;;;-0.34;53.60
77159;BME280;66129;45.890;13.714;2023-02-08T06:59:45;103098.72;;;-0.35;53.41
77159;BME280;66129;45.890;13.714;2023-02-08T07:02:17;103098.22;;;-0.39;53.46
77159;BME280;66129;45.890;13.714;2023-02-08T07:04:43;103090.22;;;-0.44;54.34
77159;BME280;66129;45.890;13.714;2023-02-08T07:07:10;103107.44;;;-0.31;53.57
77159;BME280;66129;45.890;13.714;2023-02-08T07:09:36;103127.63;;;-0.23;53.79
77159;BME280;66129;45.890;13.714;2023-02-08T07:12:02;103122.00;;;-0.20;53.79
77159;BME280;66129;45.890;13.714;2023-02-08T07:14:30;103084.16;;;-0.46;54.00
77159;BME280;66129;45.890;13.714;2023-02-08T07:16:56;103115.91;;;-0.31;54.06
77159;BME280;66129;45.890;13.714;2023-02-08T07:19:22;103107.78;;;-0.20;53.65
77159;BME280;66129;45.890;13.714;2023-02-08T07:21:47;103097.38;;;-0.31;53.70
77159;BME280;66129;45.890;13.714;2023-02-08T07:24:13;103079.84;;;-0.47;54.04
77159;BME280;66129;45.890;13.714;2023-02-08T07:26:38;103113.09;;;-0.34;53.69
77159;BME280;66129;45.890;13.714;2023-02-08T07:29:04;103080.03;;;-0.45;53.65
77159;BME280;66129;45.890;13.714;2023-02-08T07:31:29;103091.16;;;-0.26;53.26
77159;BME280;66129;45.890;13.714;2023-02-08T07:33:55;103078.69;;;-0.33;53.51
77159;BME280;66129;45.890;13.714;2023-02-08T07:36:20;103110.47;;;-0.18;53.12
77159;BME280;66129;45.890;13.714;2023-02-08T07:38:46;103109.28;;;-0.05;53.01
77159;BME280;66129;45.890;13.714;2023-02-08T07:41:12;103107.38;;;0.43;51.52
77159;BME280;66129;45.890;13.714;2023-02-08T07:43:39;103108.84;;;1.19;49.41
77159;BME280;66129;45.890;13.714;2023-02-08T07:46:10;103131.50;;;1.71;48.08
77159;BME280;66129;45.890;13.714;2023-02-08T07:48:37;103124.28;;;1.84;46.84
77159;BME280;66129;45.890;13.714;2023-02-08T07:51:03;103122.44;;;2.18;47.49
77159;BME280;66129;45.890;13.714;2023-02-08T07:53:29;103113.53;;;2.50;45.18
77159;BME280;66129;45.890;13.714;2023-02-08T07:55:54;103110.19;;;2.41;45.49
77159;BME280;66129;45.890;13.714;2023-02-08T07:58:23;103103.72;;;2.63;44.35
77159;BME280;66129;45.890;13.714;2023-02-08T08:00:48;103136.59;;;2.82;44.10
77159;BME280;66129;45.890;13.714;2023-02-08T08:03:16;103125.41;;;2.98;43.23
77159;BME280;66129;45.890;13.714;2023-02-08T08:05:42;103120.13;;;3.15;43.21
77159;BME280;66129;45.890;13.714;2023-02-08T08:08:09;103126.66;;;2.93;43.19
77159;BME280;66129;45.890;13.714;2023-02-08T08:10:35;103142.00;;;3.33;43.03
77159;BME280;66129;45.890;13.714;2023-02-08T08:13:00;103155.88;;;3.18;42.77
77159;BME280;66129;45.890;13.714;2023-02-08T08:15:27;103156.13;;;3.49;42.58
77159;BME280;66129;45.890;13.714;2023-02-08T08:17:53;103138.91;;;3.55;41.93
77159;BME280;66129;45.890;13.714;2023-02-08T08:20:19;103141.28;;;3.54;41.31
77159;BME280;66129;45.890;13.714;2023-02-08T08:22:44;103148.25;;;3.46;41.57
77159;BME280;66129;45.890;13.714;2023-02-08T08:25:10;103158.63;;;3.39;41.42
77159;BME280;66129;45.890;13.714;2023-02-08T08:27:36;103146.13;;;3.61;41.40
77159;BME280;66129;45.890;13.714;2023-02-08T08:30:04;103128.66;;;3.74;41.11
77159;BME280;66129;45.890;13.714;2023-02-08T08:32:30;103161.44;;;3.52;41.52
77159;BME280;66129;45.890;13.714;2023-02-08T08:34:56;103113.06;;;3.89;41.16
77159;BME280;66129;45.890;13.714;2023-02-08T08:37:22;103137.78;;;3.82;41.02
77159;BME280;66129;45.890;13.714;2023-02-08T08:39:48;103150.13;;;4.17;41.20
77159;BME280;66129;45.890;13.714;2023-02-08T08:42:14;103084.31;;;3.30;41.59
77159;BME280;66129;45.890;13.714;2023-02-08T08:44:40;103128.75;;;3.65;41.83
77159;BME280;66129;45.890;13.714;2023-02-08T08:47:05;103066.41;;;2.99;42.16
77159;BME280;66129;45.890;13.714;2023-02-08T08:49:32;103122.16;;;3.09;42.98
77159;BME280;66129;45.890;13.714;2023-02-08T08:51:58;103149.56;;;3.71;42.08
77159;BME280;66129;45.890;13.714;2023-02-08T08:54:23;103087.44;;;3.76;41.13
77159;BME280;66129;45.890;13.714;2023-02-08T08:56:49;103160.34;;;4.48;40.20
77159;BME280;66129;45.890;13.714;2023-02-08T08:59:18;103081.59;;;4.07;40.19
77159;BME280;66129;45.890;13.714;2023-02-08T09:02:02;103170.19;;;4.75;39.64
77159;BME280;66129;45.890;13.714;2023-02-08T09:04:32;103124.66;;;4.57;39.73
77159;BME280;66129;45.890;13.714;2023-02-08T09:07:02;103205.94;;;4.98;39.42
77159;BME280;66129;45.890;13.714;2023-02-08T09:09:28;103098.19;;;4.34;39.07
77159;BME280;66129;45.890;13.714;2023-02-08T09:11:53;103099.56;;;4.30;39.53
77159;BME280;66129;45.890;13.714;2023-02-08T09:17:14;103214.81;;;5.23;39.06
77159;BME280;66129;45.890;13.714;2023-02-08T09:19:42;103211.88;;;5.19;39.39
77159;BME280;66129;45.890;13.714;2023-02-08T09:22:09;103193.06;;;5.17;39.38
77159;BME280;66129;45.890;13.714;2023-02-08T09:24:35;103172.34;;;4.81;39.44
77159;BME280;66129;45.890;13.714;2023-02-08T09:27:00;103154.84;;;5.05;39.08
77159;BME280;66129;45.890;13.714;2023-02-08T09:29:26;103124.63;;;4.67;38.80
77159;BME280;66129;45.890;13.714;2023-02-08T09:31:54;103143.75;;;4.93;39.37
77159;BME280;66129;45.890;13.714;2023-02-08T09:34:20;103201.75;;;5.09;38.86
77159;BME280;66129;45.890;13.714;2023-02-08T09:36:46;103148.50;;;5.10;38.34
77159;BME280;66129;45.890;13.714;2023-02-08T09:39:18;103184.19;;;5.12;38.76
77159;BME280;66129;45.890;13.714;2023-02-08T09:44:26;103230.38;;;5.90;37.09
77159;BME280;66129;45.890;13.714;2023-02-08T09:47:19;103241.06;;;4.92;37.43
77159;BME280;66129;45.890;13.714;2023-02-08T09:52:43;103186.88;;;4.62;38.43
77159;BME280;66129;45.890;13.714;2023-02-08T09:57:50;103224.97;;;4.72;38.34
77159;BME280;66129;45.890;13.714;2023-02-08T10:00:29;103187.16;;;4.35;39.26
77159;BME280;66129;45.890;13.714;2023-02-08T10:02:57;103234.88;;;4.39;38.85
77159;BME280;66129;45.890;13.714;2023-02-08T10:05:25;103199.19;;;4.57;39.83
77159;BME280;66129;45.890;13.714;2023-02-08T10:07:51;103217.28;;;4.92;39.36
77159;BME280;66129;45.890;13.714;2023-02-08T10:10:29;103247.59;;;5.20;38.89
77159;BME280;66129;45.890;13.714;2023-02-08T10:21:17;103244.13;;;4.78;39.55
77159;BME280;66129;45.890;13.714;2023-02-08T10:26:36;103255.81;;;4.36;40.08
77159;BME280;66129;45.890;13.714;2023-02-08T10:34:42;103270.16;;;4.66;39.45
77159;BME280;66129;45.890;13.714;2023-02-08T10:37:16;103240.34;;;4.53;38.64
77159;BME280;66129;45.890;13.714;2023-02-08T10:39:42;103225.47;;;4.68;38.80
77159;BME280;66129;45.890;13.714;2023-02-08T10:42:16;103223.19;;;4.61;39.35
77159;BME280;66129;45.890;13.714;2023-02-08T10:52:49;103237.38;;;4.89;39.30
77159;BME280;66129;45.890;13.714;2023-02-08T10:55:18;103266.94;;;5.08;38.19
77159;BME280;66129;45.890;13.714;2023-02-08T10:57:49;103211.91;;;5.40;38.34
77159;BME280;66129;45.890;13.714;2023-02-08T11:00:19;103253.44;;;5.50;37.06
77159;BME280;66129;45.890;13.714;2023-02-08T11:02:46;103207.09;;;5.33;37.77
77159;BME280;66129;45.890;13.714;2023-02-08T11:05:32;103242.03;;;5.45;37.67
77159;BME280;66129;45.890;13.714;2023-02-08T11:10:31;103194.53;;;5.35;36.37
77159;BME280;66129;45.890;13.714;2023-02-08T11:15:37;103201.25;;;5.34;37.47
77159;BME280;66129;45.890;13.714;2023-02-08T11:18:05;103274.56;;;5.49;35.88
77159;BME280;66129;45.890;13.714;2023-02-08T11:20:52;103259.00;;;5.25;37.42
77159;BME280;66129;45.890;13.714;2023-02-08T11:23:28;103251.41;;;5.56;36.32
77159;BME280;66129;45.890;13.714;2023-02-08T11:28:40;103265.03;;;5.47;35.23
77159;BME280;66129;45.890;13.714;2023-02-08T11:31:24;103252.72;;;5.73;35.29
77159;BME280;66129;45.890;13.714;2023-02-08T11:34:09;103251.28;;;5.76;34.69
77159;BME280;66129;45.890;13.714;2023-02-08T11:36:42;103256.91;;;5.72;34.00
77159;BME280;66129;45.890;13.714;2023-02-08T11:39:36;103237.25;;;5.29;35.26
77159;BME280;66129;45.890;13.714;2023-02-08T11:42:03;103186.03;;;4.93;35.15
77159;BME280;66129;45.890;13.714;2023-02-08T11:44:35;103231.03;;;5.56;35.29
77159;BME280;66129;45.890;13.714;2023-02-08T11:47:07;103240.88;;;5.52;34.83
77159;BME280;66129;45.890;13.714;2023-02-08T11:49:40;103266.38;;;5.63;34.81
77159;BME280;66129;45.890;13.714;2023-02-08T11:52:28;103246.75;;;5.00;34.99
77159;BME280;66129;45.890;13.714;2023-02-08T11:55:12;103253.28;;;4.76;36.12
77159;BME280;66129;45.890;13.714;2023-02-08T11:57:54;103253.22;;;4.96;36.25
77159;BME280;66129;45.890;13.714;2023-02-08T12:00:26;103228.78;;;4.67;36.70
77159;BME280;66129;45.890;13.714;2023-02-08T12:03:11;103251.44;;;4.95;36.37
77159;BME280;66129;45.890;13.714;2023-02-08T12:30:12;103257.69;;;5.40;35.90
77159;BME280;66129;45.890;13.714;2023-02-08T12:35:57;103252.63;;;5.30;35.23
77159;BME280;66129;45.890;13.714;2023-02-08T12:47:16;103252.22;;;5.67;35.90
77159;BME280;66129;45.890;13.714;2023-02-08T12:57:37;103225.06;;;5.56;36.19
77159;BME280;66129;45.890;13.714;2023-02-08T13:00:25;103198.22;;;4.97;36.24
77159;BME280;66129;45.890;13.714;2023-02-08T13:03:04;103177.22;;;4.99;36.53
77159;BME280;66129;45.890;13.714;2023-02-08T13:05:39;103157.25;;;5.35;36.10
77159;BME280;66129;45.890;13.714;2023-02-08T13:11:01;103196.16;;;5.34;36.78
77159;BME280;66129;45.890;13.714;2023-02-08T13:13:32;103177.06;;;4.76;36.69
77159;BME280;66129;45.890;13.714;2023-02-08T13:16:00;103167.00;;;4.88;37.28
77159;BME280;66129;45.890;13.714;2023-02-08T13:18:30;103152.78;;;4.80;36.96
77159;BME280;66129;45.890;13.714;2023-02-08T13:21:03;103173.66;;;4.76;36.91
77159;BME280;66129;45.890;13.714;2023-02-08T13:23:42;103183.81;;;4.76;37.27
77159;BME280;66129;45.890;13.714;2023-02-08T13:26:21;103165.03;;;4.64;37.27
77159;BME280;66129;45.890;13.714;2023-02-08T13:28:56;103181.03;;;4.53;37.91
77159;BME280;66129;45.890;13.714;2023-02-08T13:31:37;103177.22;;;4.68;37.19
77159;BME280;66129;45.890;13.714;2023-02-08T13:34:07;103180.19;;;4.84;36.82
77159;BME280;66129;45.890;13.714;2023-02-08T13:36:49;103194.78;;;4.96;36.32
77159;BME280;66129;45.890;13.714;2023-02-08T13:40:33;103187.78;;;4.52;37.38
77159;BME280;66129;45.890;13.714;2023-02-08T13:42:51;103142.97;;;4.33;37.63
77159;BME280;66129;45.890;13.714;2023-02-08T13:45:26;103191.06;;;4.51;37.48
77159;BME280;66129;45.890;13.714;2023-02-08T13:48:01;103153.13;;;4.23;37.82
77159;BME280;66129;45.890;13.714;2023-02-08T13:53:03;103164.69;;;4.20;37.46
77159;BME280;66129;45.890;13.714;2023-02-08T13:57:57;103219.63;;;4.79;37.88
77159;BME280;66129;45.890;13.714;2023-02-08T14:00:35;103190.00;;;4.79;37.44
77159;BME280;66129;45.890;13.714;2023-02-08T14:13:31;103180.16;;;4.42;36.65
77159;BME280;66129;45.890;13.714;2023-02-08T14:16:28;103222.41;;;4.62;37.08
77159;BME280;66129;45.890;13.714;2023-02-08T14:19:02;103206.31;;;4.32;36.90
77159;BME280;66129;45.890;13.714;2023-02-08T14:21:37;103161.66;;;4.04;37.35
77159;BME280;66129;45.890;13.714;2023-02-08T14:24:06;103196.41;;;4.15;37.06
77159;BME280;66129;45.890;13.714;2023-02-08T14:26:35;103175.34;;;4.16;36.83
77159;BME280;66129;45.890;13.714;2023-02-08T14:29:03;103203.78;;;4.22;37.00
77159;BME280;66129;45.890;13.714;2023-02-08T14:31:42;103182.47;;;4.20;37.83
77159;BME280;66129;45.890;13.714;2023-02-08T14:34:34;103211.25;;;4.10;37.87
77159;BME280;66129;45.890;13.714;2023-02-08T14:39:28;103213.66;;;3.99;37.93
77159;BME280;66129;45.890;13.714;2023-02-08T14:41:58;103191.31;;;3.85;37.73
77159;BME280;66129;45.890;13.714;2023-02-08T14:49:36;103204.66;;;3.54;37.88
77159;BME280;66129;45.890;13.714;2023-02-08T14:52:17;103160.13;;;3.37;38.52
77159;BME280;66129;45.890;13.714;2023-02-08T14:54:49;103200.25;;;3.61;37.51
77159;BME280;66129;45.890;13.714;2023-02-08T14:57:33;103208.59;;;3.60;37.59
77159;BME280;66129;45.890;13.714;2023-02-08T15:00:16;103196.31;;;3.55;38.15
77159;BME280;66129;45.890;13.714;2023-02-08T15:02:44;103194.41;;;3.62;38.65
77159;BME280;66129;45.890;13.714;2023-02-08T15:05:21;103194.25;;;3.51;38.32
77159;BME280;66129;45.890;13.714;2023-02-08T15:07:52;103106.66;;;2.96;38.96
77159;BME280;66129;45.890;13.714;2023-02-08T15:10:20;103141.31;;;3.16;38.85
77159;BME280;66129;45.890;13.714;2023-02-08T15:12:51;103179.00;;;3.31;39.02
77159;BME280;66129;45.890;13.714;2023-02-08T15:15:38;103194.38;;;3.42;39.28
77159;BME280;66129;45.890;13.714;2023-02-08T15:18:06;103220.19;;;3.38;38.65
77159;BME280;66129;45.890;13.714;2023-02-08T15:20:39;103210.66;;;3.26;38.93
77159;BME280;66129;45.890;13.714;2023-02-08T15:23:23;103216.78;;;3.10;39.44
77159;BME280;66129;45.890;13.714;2023-02-08T15:26:00;103163.88;;;2.66;40.32